sensor_id;sensor_type;location;lat;lon;timestamp;P1;durP1;ratioP1;P2;durP2;ratioP2
21820;SDS011;11073;48.586;12.066;2022-10-14T00:01:24;26.95;;;20.00;;
21820;SDS011;11073;48.586;12.066;2022-10-14T00:03:54;33.45;;;25.40;;
21820;SDS011;11073;48.586;12.066;2022-10-14T00:06:24;29.08;;;22.30;;
21820;SDS011;11073;48.586;12.066;2022-10-14T00:08:55;28.63;;;21.42;;
21820;SDS011;11073;48.586;12.066;2022-10-14T00:11:29;35.63;;;23.73;;
21820;SDS011;11073;48.586;12.066;2022-10-14T00:13:59;28.63;;;20.27;;
21820;SDS011;11073;48.586;12.066;2022-10-14T00:16:34;24.45;;;18.60;;
21820;SDS011;11073;48.586;12.066;2022-10-14T00:19:05;32.22;;;22.23;;
21820;SDS011;11073;48.586;12.066;2022-10-14T00:21:36;27.80;;;19.48;;
21820;SDS011;11073;48.586;12.066;2022-10-14T00:24:07;24.33;;;18.40;;
21820;SDS011;11073;48.586;12.066;2022-10-14T00:26:38;34.22;;;22.67;;
21820;SDS011;11073;48.586;12.066;2022-10-14T00:29:10;29.17;;;20.80;;
21820;SDS011;11073;48.586;12.066;2022-10-14T00:31:40;25.98;;;20.15;;
21820;SDS011;11073;48.586;12.066;2022-10-14T00:34:10;19.38;;;16.67;;
21820;SDS011;11073;48.586;12.066;2022-10-14T00:36:42;26.45;;;18.15;;
21820;SDS011;11073;48.586;12.066;2022-10-14T00:39:14;20.63;;;16.25;;
21820;SDS011;11073;48.586;12.066;2022-10-14T00:41:42;18.20;;;15.27;;
21820;SDS011;11073;48.586;12.066;2022-10-14T00:47:19;21.73;;;15.95;;
21820;SDS011;11073;48.586;12.066;2022-10-14T00:49:49;18.48;;;14.88;;
21820;SDS011;11073;48.586;12.066;2022-10-14T00:52:18;13.75;;;12.07;;
21820;SDS011;11073;48.586;12.066;2022-10-14T00:54:52;13.20;;;10.32;;
21820;SDS011;11073;48.586;12.066;2022-10-14T00:57:24;11.27;;;9.68;;
21820;SDS011;11073;48.586;12.066;2022-10-14T00:59:55;15.85;;;11.95;;
21820;SDS011;11073;48.586;12.066;2022-10-14T01:02:30;16.70;;;12.32;;
21820;SDS011;11073;48.586;12.066;2022-10-14T01:05:00;19.27;;;14.13;;
21820;SDS011;11073;48.586;12.066;2022-10-14T01:07:39;20.90;;;15.57;;
21820;SDS011;11073;48.586;12.066;2022-10-14T01:10:16;16.60;;;12.25;;
21820;SDS011;11073;48.586;12.066;2022-10-14T01:12:53;13.45;;;11.55;;
21820;SDS011;11073;48.586;12.066;2022-10-14T01:15:34;11.77;;;9.75;;
21820;SDS011;11073;48.586;12.066;2022-10-14T01:18:15;15.70;;;11.35;;
21820;SDS011;11073;48.586;12.066;2022-10-14T01:21:00;20.45;;;14.70;;
21820;SDS011;11073;48.586;12.066;2022-10-14T01:23:45;16.38;;;12.23;;
21820;SDS011;11073;48.586;12.066;2022-10-14T01:26:38;15.60;;;11.13;;
21820;SDS011;11073;48.586;12.066;2022-10-14T01:29:20;13.30;;;9.45;;
21820;SDS011;11073;48.586;12.066;2022-10-14T01:32:08;12.07;;;8.48;;
21820;SDS011;11073;48.586;12.066;2022-10-14T01:34:40;12.35;;;9.10;;
21820;SDS011;11073;48.586;12.066;2022-10-14T01:37:14;12.18;;;8.73;;
21820;SDS011;11073;48.586;12.066;2022-10-14T01:39:53;10.63;;;8.23;;
21820;SDS011;11073;48.586;12.066;2022-10-14T01:42:29;12.13;;;9.20;;
21820;SDS011;11073;48.586;12.066;2022-10-14T01:45:04;13.55;;;10.45;;
21820;SDS011;11073;48.586;12.066;2022-10-14T01:47:36;12.20;;;9.05;;
21820;SDS011;11073;48.586;12.066;2022-10-14T01:50:08;10.40;;;7.90;;
21820;SDS011;11073;48.586;12.066;2022-10-14T01:52:41;10.55;;;8.15;;
21820;SDS011;11073;48.586;12.066;2022-10-14T01:55:16;12.45;;;8.63;;
21820;SDS011;11073;48.586;12.066;2022-10-14T01:57:49;12.13;;;8.77;;
21820;SDS011;11073;48.586;12.066;2022-10-14T02:00:22;11.35;;;9.55;;
21820;SDS011;11073;48.586;12.066;2022-10-14T02:02:50;10.18;;;8.40;;
21820;SDS011;11073;48.586;12.066;2022-10-14T02:05:20;9.32;;;8.18;;
21820;SDS011;11073;48.586;12.066;2022-10-14T02:07:55;10.07;;;7.85;;
21820;SDS011;11073;48.586;12.066;2022-10-14T02:10:34;10.30;;;7.97;;
21820;SDS011;11073;48.586;12.066;2022-10-14T02:13:16;12.18;;;7.82;;
21820;SDS011;11073;48.586;12.066;2022-10-14T02:16:00;13.13;;;10.00;;
21820;SDS011;11073;48.586;12.066;2022-10-14T02:18:39;14.15;;;9.35;;
21820;SDS011;11073;48.586;12.066;2022-10-14T02:21:15;12.43;;;9.38;;
21820;SDS011;11073;48.586;12.066;2022-10-14T02:23:51;12.93;;;9.05;;
21820;SDS011;11073;48.586;12.066;2022-10-14T02:26:24;12.60;;;9.43;;
21820;SDS011;11073;48.586;12.066;2022-10-14T02:28:54;14.55;;;10.63;;
21820;SDS011;11073;48.586;12.066;2022-10-14T02:31:25;15.05;;;10.55;;
21820;SDS011;11073;48.586;12.066;2022-10-14T02:33:56;14.00;;;11.48;;
21820;SDS011;11073;48.586;12.066;2022-10-14T02:36:28;14.65;;;10.85;;
21820;SDS011;11073;48.586;12.066;2022-10-14T02:38:58;13.95;;;10.38;;
21820;SDS011;11073;48.586;12.066;2022-10-14T02:41:29;14.05;;;11.00;;
21820;SDS011;11073;48.586;12.066;2022-10-14T02:44:03;16.17;;;12.45;;
21820;SDS011;11073;48.586;12.066;2022-10-14T02:46:34;16.92;;;12.50;;
21820;SDS011;11073;48.586;12.066;2022-10-14T02:49:02;16.55;;;11.98;;
21820;SDS011;11073;48.586;12.066;2022-10-14T02:51:31;16.77;;;11.50;;
21820;SDS011;11073;48.586;12.066;2022-10-14T02:54:00;14.45;;;11.23;;
21820;SDS011;11073;48.586;12.066;2022-10-14T02:56:29;13.90;;;10.55;;
21820;SDS011;11073;48.586;12.066;2022-10-14T02:58:59;15.68;;;12.07;;
21820;SDS011;11073;48.586;12.066;2022-10-14T03:01:29;12.93;;;11.65;;
21820;SDS011;11073;48.586;12.066;2022-10-14T03:04:06;14.55;;;12.27;;
21820;SDS011;11073;48.586;12.066;2022-10-14T03:06:35;14.90;;;11.48;;
21820;SDS011;11073;48.586;12.066;2022-10-14T03:09:03;15.40;;;11.98;;
21820;SDS011;11073;48.586;12.066;2022-10-14T03:11:35;14.25;;;11.55;;
21820;SDS011;11073;48.586;12.066;2022-10-14T03:14:07;13.23;;;10.63;;
21820;SDS011;11073;48.586;12.066;2022-10-14T03:16:36;15.45;;;13.20;;
21820;SDS011;11073;48.586;12.066;2022-10-14T03:19:06;20.90;;;15.70;;
21820;SDS011;11073;48.586;12.066;2022-10-14T03:21:41;19.85;;;15.38;;
21820;SDS011;11073;48.586;12.066;2022-10-14T03:24:16;16.00;;;12.90;;
21820;SDS011;11073;48.586;12.066;2022-10-14T03:26:49;19.55;;;15.00;;
21820;SDS011;11073;48.586;12.066;2022-10-14T03:29:23;18.63;;;13.30;;
21820;SDS011;11073;48.586;12.066;2022-10-14T03:31:58;15.32;;;13.23;;
21820;SDS011;11073;48.586;12.066;2022-10-14T03:34:32;22.17;;;14.02;;
21820;SDS011;11073;48.586;12.066;2022-10-14T03:37:11;17.08;;;14.15;;
21820;SDS011;11073;48.586;12.066;2022-10-14T03:39:46;19.65;;;14.18;;
21820;SDS011;11073;48.586;12.066;2022-10-14T03:42:16;14.82;;;12.52;;
21820;SDS011;11073;48.586;12.066;2022-10-14T03:44:47;17.00;;;12.32;;
21820;SDS011;11073;48.586;12.066;2022-10-14T03:47:36;16.73;;;13.35;;
21820;SDS011;11073;48.586;12.066;2022-10-14T03:50:06;17.63;;;12.95;;
21820;SDS011;11073;48.586;12.066;2022-10-14T03:52:41;16.17;;;12.95;;
21820;SDS011;11073;48.586;12.066;2022-10-14T03:55:22;16.85;;;12.32;;
21820;SDS011;11073;48.586;12.066;2022-10-14T03:57:52;19.05;;;13.43;;
21820;SDS011;11073;48.586;12.066;2022-10-14T04:00:20;15.48;;;11.75;;
21820;SDS011;11073;48.586;12.066;2022-10-14T04:03:01;20.20;;;13.02;;
21820;SDS011;11073;48.586;12.066;2022-10-14T04:05:35;18.90;;;13.15;;
21820;SDS011;11073;48.586;12.066;2022-10-14T04:08:10;18.85;;;13.15;;
21820;SDS011;11073;48.586;12.066;2022-10-14T04:10:44;16.60;;;13.77;;
21820;SDS011;11073;48.586;12.066;2022-10-14T04:13:13;17.98;;;14.10;;
21820;SDS011;11073;48.586;12.066;2022-10-14T04:15:42;16.58;;;12.30;;
21820;SDS011;11073;48.586;12.066;2022-10-14T04:18:28;18.67;;;13.35;;
21820;SDS011;11073;48.586;12.066;2022-10-14T04:21:01;14.70;;;12.10;;
21820;SDS011;11073;48.586;12.066;2022-10-14T04:23:31;15.32;;;12.52;;
21820;SDS011;11073;48.586;12.066;2022-10-14T04:26:08;17.30;;;13.40;;
21820;SDS011;11073;48.586;12.066;2022-10-14T04:28:38;23.08;;;14.70;;
21820;SDS011;11073;48.586;12.066;2022-10-14T04:31:14;17.35;;;13.05;;
21820;SDS011;11073;48.586;12.066;2022-10-14T04:33:54;15.77;;;13.23;;
21820;SDS011;11073;48.586;12.066;2022-10-14T04:36:30;13.93;;;11.52;;
21820;SDS011;11073;48.586;12.066;2022-10-14T04:39:01;13.57;;;10.98;;
21820;SDS011;11073;48.586;12.066;2022-10-14T04:41:29;19.40;;;13.38;;
21820;SDS011;11073;48.586;12.066;2022-10-14T04:44:00;17.30;;;14.75;;
21820;SDS011;11073;48.586;12.066;2022-10-14T04:46:34;17.33;;;14.60;;
21820;SDS011;11073;48.586;12.066;2022-10-14T04:49:02;19.30;;;14.50;;
21820;SDS011;11073;48.586;12.066;2022-10-14T04:51:38;17.17;;;13.73;;
21820;SDS011;11073;48.586;12.066;2022-10-14T04:54:31;22.85;;;15.85;;
21820;SDS011;11073;48.586;12.066;2022-10-14T04:56:59;20.48;;;15.50;;
21820;SDS011;11073;48.586;12.066;2022-10-14T04:59:29;20.35;;;14.63;;
21820;SDS011;11073;48.586;12.066;2022-10-14T05:02:24;17.98;;;13.25;;
21820;SDS011;11073;48.586;12.066;2022-10-14T05:04:58;17.83;;;13.07;;
21820;SDS011;11073;48.586;12.066;2022-10-14T05:07:32;18.48;;;13.55;;
21820;SDS011;11073;48.586;12.066;2022-10-14T05:10:17;19.95;;;14.27;;
21820;SDS011;11073;48.586;12.066;2022-10-14T05:12:47;18.40;;;14.57;;
21820;SDS011;11073;48.586;12.066;2022-10-14T05:15:17;16.08;;;12.07;;
21820;SDS011;11073;48.586;12.066;2022-10-14T05:18:00;18.00;;;14.60;;
21820;SDS011;11073;48.586;12.066;2022-10-14T05:20:47;16.77;;;13.05;;
21820;SDS011;11073;48.586;12.066;2022-10-14T05:23:19;13.43;;;11.80;;
21820;SDS011;11073;48.586;12.066;2022-10-14T05:25:50;16.08;;;12.73;;
21820;SDS011;11073;48.586;12.066;2022-10-14T05:28:19;16.98;;;13.50;;
21820;SDS011;11073;48.586;12.066;2022-10-14T05:30:49;18.35;;;12.73;;
21820;SDS011;11073;48.586;12.066;2022-10-14T05:33:19;19.55;;;14.82;;
21820;SDS011;11073;48.586;12.066;2022-10-14T05:35:48;29.83;;;17.20;;
21820;SDS011;11073;48.586;12.066;2022-10-14T05:38:31;26.90;;;18.13;;
21820;SDS011;11073;48.586;12.066;2022-10-14T05:41:02;21.35;;;15.60;;
21820;SDS011;11073;48.586;12.066;2022-10-14T05:43:31;16.92;;;12.95;;
21820;SDS011;11073;48.586;12.066;2022-10-14T05:46:03;13.68;;;11.98;;
21820;SDS011;11073;48.586;12.066;2022-10-14T05:48:36;15.93;;;12.68;;
21820;SDS011;11073;48.586;12.066;2022-10-14T05:51:05;15.70;;;11.23;;
21820;SDS011;11073;48.586;12.066;2022-10-14T05:53:37;15.60;;;12.15;;
21820;SDS011;11073;48.586;12.066;2022-10-14T05:56:12;13.93;;;11.45;;
21820;SDS011;11073;48.586;12.066;2022-10-14T05:58:41;14.23;;;11.10;;
21820;SDS011;11073;48.586;12.066;2022-10-14T06:01:09;15.15;;;11.68;;
21820;SDS011;11073;48.586;12.066;2022-10-14T06:03:40;14.82;;;11.43;;
21820;SDS011;11073;48.586;12.066;2022-10-14T06:06:10;13.93;;;10.93;;
21820;SDS011;11073;48.586;12.066;2022-10-14T06:08:41;12.98;;;11.68;;
21820;SDS011;11073;48.586;12.066;2022-10-14T06:11:11;14.52;;;12.30;;
21820;SDS011;11073;48.586;12.066;2022-10-14T06:13:39;14.45;;;11.73;;
21820;SDS011;11073;48.586;12.066;2022-10-14T06:16:09;16.88;;;13.48;;
21820;SDS011;11073;48.586;12.066;2022-10-14T06:18:38;21.05;;;14.65;;
21820;SDS011;11073;48.586;12.066;2022-10-14T06:21:07;16.75;;;11.45;;
21820;SDS011;11073;48.586;12.066;2022-10-14T06:23:38;16.60;;;11.60;;
21820;SDS011;11073;48.586;12.066;2022-10-14T06:26:08;11.27;;;9.60;;
21820;SDS011;11073;48.586;12.066;2022-10-14T06:28:37;14.48;;;11.32;;
21820;SDS011;11073;48.586;12.066;2022-10-14T06:31:05;13.85;;;10.23;;
21820;SDS011;11073;48.586;12.066;2022-10-14T06:33:34;10.68;;;8.95;;
21820;SDS011;11073;48.586;12.066;2022-10-14T06:36:03;13.40;;;11.10;;
21820;SDS011;11073;48.586;12.066;2022-10-14T06:38:33;12.80;;;10.70;;
21820;SDS011;11073;48.586;12.066;2022-10-14T06:41:02;14.27;;;12.75;;
21820;SDS011;11073;48.586;12.066;2022-10-14T06:43:32;11.85;;;10.57;;
21820;SDS011;11073;48.586;12.066;2022-10-14T06:46:01;11.43;;;10.00;;
21820;SDS011;11073;48.586;12.066;2022-10-14T06:48:30;20.50;;;14.63;;
21820;SDS011;11073;48.586;12.066;2022-10-14T06:50:59;20.08;;;12.63;;
21820;SDS011;11073;48.586;12.066;2022-10-14T06:53:28;15.35;;;12.38;;
21820;SDS011;11073;48.586;12.066;2022-10-14T06:55:58;15.27;;;12.52;;
21820;SDS011;11073;48.586;12.066;2022-10-14T06:58:28;13.63;;;11.75;;
21820;SDS011;11073;48.586;12.066;2022-10-14T07:01:00;16.70;;;13.07;;
21820;SDS011;11073;48.586;12.066;2022-10-14T07:03:30;18.90;;;13.50;;
21820;SDS011;11073;48.586;12.066;2022-10-14T07:06:02;22.80;;;16.60;;
21820;SDS011;11073;48.586;12.066;2022-10-14T07:08:31;16.88;;;14.20;;
21820;SDS011;11073;48.586;12.066;2022-10-14T07:11:00;25.73;;;19.33;;
21820;SDS011;11073;48.586;12.066;2022-10-14T07:13:28;27.13;;;21.42;;
21820;SDS011;11073;48.586;12.066;2022-10-14T07:15:57;18.33;;;15.98;;
21820;SDS011;11073;48.586;12.066;2022-10-14T07:18:27;16.60;;;12.85;;
21820;SDS011;11073;48.586;12.066;2022-10-14T07:20:56;14.00;;;12.13;;
21820;SDS011;11073;48.586;12.066;2022-10-14T07:23:28;18.77;;;13.85;;
21820;SDS011;11073;48.586;12.066;2022-10-14T07:25:57;17.75;;;12.75;;
21820;SDS011;11073;48.586;12.066;2022-10-14T07:28:26;14.43;;;12.18;;
21820;SDS011;11073;48.586;12.066;2022-10-14T07:30:56;19.58;;;14.05;;
21820;SDS011;11073;48.586;12.066;2022-10-14T07:33:28;17.58;;;14.05;;
21820;SDS011;11073;48.586;12.066;2022-10-14T07:35:59;14.90;;;13.18;;
21820;SDS011;11073;48.586;12.066;2022-10-14T07:38:28;17.70;;;13.93;;
21820;SDS011;11073;48.586;12.066;2022-10-14T07:40:57;20.90;;;17.42;;
21820;SDS011;11073;48.586;12.066;2022-10-14T07:43:27;16.60;;;12.55;;
21820;SDS011;11073;48.586;12.066;2022-10-14T07:45:58;18.05;;;12.68;;
21820;SDS011;11073;48.586;12.066;2022-10-14T07:48:30;20.38;;;14.15;;
21820;SDS011;11073;48.586;12.066;2022-10-14T07:51:21;15.98;;;13.70;;
21820;SDS011;11073;48.586;12.066;2022-10-14T07:53:50;19.48;;;13.95;;
21820;SDS011;11073;48.586;12.066;2022-10-14T07:56:19;16.02;;;13.68;;
21820;SDS011;11073;48.586;12.066;2022-10-14T07:58:48;17.27;;;13.15;;
21820;SDS011;11073;48.586;12.066;2022-10-14T08:01:17;17.52;;;12.68;;
21820;SDS011;11073;48.586;12.066;2022-10-14T08:03:48;15.68;;;12.77;;
21820;SDS011;11073;48.586;12.066;2022-10-14T08:06:16;14.90;;;11.63;;
21820;SDS011;11073;48.586;12.066;2022-10-14T08:08:45;14.05;;;10.98;;
21820;SDS011;11073;48.586;12.066;2022-10-14T08:11:14;16.25;;;11.50;;
21820;SDS011;11073;48.586;12.066;2022-10-14T08:13:44;12.48;;;9.98;;
21820;SDS011;11073;48.586;12.066;2022-10-14T08:16:14;14.73;;;10.73;;
21820;SDS011;11073;48.586;12.066;2022-10-14T08:18:44;12.15;;;10.52;;
21820;SDS011;11073;48.586;12.066;2022-10-14T08:21:16;12.05;;;9.85;;
21820;SDS011;11073;48.586;12.066;2022-10-14T08:23:45;11.45;;;9.18;;
21820;SDS011;11073;48.586;12.066;2022-10-14T08:26:16;13.45;;;9.70;;
21820;SDS011;11073;48.586;12.066;2022-10-14T08:28:48;13.30;;;10.45;;
21820;SDS011;11073;48.586;12.066;2022-10-14T08:31:18;15.65;;;9.65;;
21820;SDS011;11073;48.586;12.066;2022-10-14T08:33:48;10.45;;;8.82;;
21820;SDS011;11073;48.586;12.066;2022-10-14T08:36:18;53.13;;;29.88;;
21820;SDS011;11073;48.586;12.066;2022-10-14T08:38:50;15.32;;;10.02;;
21820;SDS011;11073;48.586;12.066;2022-10-14T08:41:32;16.27;;;12.45;;
21820;SDS011;11073;48.586;12.066;2022-10-14T08:44:14;12.38;;;8.20;;
21820;SDS011;11073;48.586;12.066;2022-10-14T08:46:46;14.50;;;9.65;;
21820;SDS011;11073;48.586;12.066;2022-10-14T08:49:21;15.73;;;9.45;;
21820;SDS011;11073;48.586;12.066;2022-10-14T08:51:56;11.32;;;8.63;;
21820;SDS011;11073;48.586;12.066;2022-10-14T08:54:29;14.55;;;9.60;;
21820;SDS011;11073;48.586;12.066;2022-10-14T08:57:03;10.43;;;8.63;;
21820;SDS011;11073;48.586;12.066;2022-10-14T08:59:34;11.70;;;8.07;;
21820;SDS011;11073;48.586;12.066;2022-10-14T09:02:13;15.98;;;8.88;;
21820;SDS011;11073;48.586;12.066;2022-10-14T09:04:48;11.55;;;9.30;;
21820;SDS011;11073;48.586;12.066;2022-10-14T09:07:18;9.35;;;7.68;;
21820;SDS011;11073;48.586;12.066;2022-10-14T09:09:49;12.35;;;7.53;;
21820;SDS011;11073;48.586;12.066;2022-10-14T09:12:22;11.93;;;8.05;;
21820;SDS011;11073;48.586;12.066;2022-10-14T09:14:57;12.00;;;8.40;;
21820;SDS011;11073;48.586;12.066;2022-10-14T09:17:33;11.65;;;8.50;;
21820;SDS011;11073;48.586;12.066;2022-10-14T09:20:15;10.05;;;8.15;;
21820;SDS011;11073;48.586;12.066;2022-10-14T09:22:52;9.75;;;8.05;;
21820;SDS011;11073;48.586;12.066;2022-10-14T09:25:26;13.10;;;9.13;;
21820;SDS011;11073;48.586;12.066;2022-10-14T09:27:57;13.23;;;7.78;;
21820;SDS011;11073;48.586;12.066;2022-10-14T09:30:26;9.43;;;7.88;;
21820;SDS011;11073;48.586;12.066;2022-10-14T09:32:58;12.38;;;7.95;;
21820;SDS011;11073;48.586;12.066;2022-10-14T09:35:28;11.88;;;6.95;;
21820;SDS011;11073;48.586;12.066;2022-10-14T09:38:01;12.15;;;7.90;;
21820;SDS011;11073;48.586;12.066;2022-10-14T09:40:30;11.32;;;7.47;;
21820;SDS011;11073;48.586;12.066;2022-10-14T09:43:02;10.77;;;7.32;;
21820;SDS011;11073;48.586;12.066;2022-10-14T09:45:46;8.13;;;7.00;;
21820;SDS011;11073;48.586;12.066;2022-10-14T09:48:18;14.40;;;9.32;;
21820;SDS011;11073;48.586;12.066;2022-10-14T09:50:58;9.48;;;7.03;;
21820;SDS011;11073;48.586;12.066;2022-10-14T09:53:31;11.48;;;6.93;;
21820;SDS011;11073;48.586;12.066;2022-10-14T09:56:02;9.52;;;7.03;;
21820;SDS011;11073;48.586;12.066;2022-10-14T09:58:34;7.90;;;7.10;;
21820;SDS011;11073;48.586;12.066;2022-10-14T10:01:06;8.88;;;5.88;;
21820;SDS011;11073;48.586;12.066;2022-10-14T10:03:42;11.93;;;6.30;;
21820;SDS011;11073;48.586;12.066;2022-10-14T10:06:13;11.65;;;7.15;;
21820;SDS011;11073;48.586;12.066;2022-10-14T10:08:54;7.72;;;5.80;;
21820;SDS011;11073;48.586;12.066;2022-10-14T10:11:27;7.00;;;5.30;;
21820;SDS011;11073;48.586;12.066;2022-10-14T10:14:14;6.50;;;5.40;;
21820;SDS011;11073;48.586;12.066;2022-10-14T10:16:44;7.47;;;4.95;;
21820;SDS011;11073;48.586;12.066;2022-10-14T10:19:24;9.18;;;6.20;;
21820;SDS011;11073;48.586;12.066;2022-10-14T10:21:55;8.57;;;6.18;;
21820;SDS011;11073;48.586;12.066;2022-10-14T10:24:51;10.95;;;6.80;;
21820;SDS011;11073;48.586;12.066;2022-10-14T10:27:39;9.55;;;5.43;;
21820;SDS011;11073;48.586;12.066;2022-10-14T10:30:13;10.95;;;6.18;;
21820;SDS011;11073;48.586;12.066;2022-10-14T10:32:50;8.18;;;5.68;;
21820;SDS011;11073;48.586;12.066;2022-10-14T10:35:26;9.45;;;5.30;;
21820;SDS011;11073;48.586;12.066;2022-10-14T10:38:01;7.95;;;4.90;;
21820;SDS011;11073;48.586;12.066;2022-10-14T10:40:40;9.55;;;4.93;;
21820;SDS011;11073;48.586;12.066;2022-10-14T10:43:29;7.45;;;4.32;;
21820;SDS011;11073;48.586;12.066;2022-10-14T10:46:14;10.23;;;5.07;;
21820;SDS011;11073;48.586;12.066;2022-10-14T10:48:57;8.38;;;4.53;;
21820;SDS011;11073;48.586;12.066;2022-10-14T10:51:33;7.75;;;4.68;;
21820;SDS011;11073;48.586;12.066;2022-10-14T10:54:13;8.25;;;6.03;;
21820;SDS011;11073;48.586;12.066;2022-10-14T10:56:53;7.55;;;5.88;;
21820;SDS011;11073;48.586;12.066;2022-10-14T11:02:26;8.43;;;4.78;;
21820;SDS011;11073;48.586;12.066;2022-10-14T11:05:24;6.90;;;3.92;;
21820;SDS011;11073;48.586;12.066;2022-10-14T11:08:21;10.77;;;4.38;;
21820;SDS011;11073;48.586;12.066;2022-10-14T11:11:24;9.18;;;4.65;;
21820;SDS011;11073;48.586;12.066;2022-10-14T11:14:18;6.80;;;3.22;;
21820;SDS011;11073;48.586;12.066;2022-10-14T11:17:01;6.22;;;3.38;;
21820;SDS011;11073;48.586;12.066;2022-10-14T11:19:41;4.55;;;3.25;;
21820;SDS011;11073;48.586;12.066;2022-10-14T11:22:21;6.65;;;3.20;;
21820;SDS011;11073;48.586;12.066;2022-10-14T11:25:05;3.17;;;2.80;;
21820;SDS011;11073;48.586;12.066;2022-10-14T11:27:47;5.03;;;3.17;;
21820;SDS011;11073;48.586;12.066;2022-10-14T11:30:23;4.38;;;2.92;;
21820;SDS011;11073;48.586;12.066;2022-10-14T11:33:11;7.75;;;3.45;;
21820;SDS011;11073;48.586;12.066;2022-10-14T11:35:52;5.25;;;2.85;;
21820;SDS011;11073;48.586;12.066;2022-10-14T11:38:36;5.30;;;3.38;;
21820;SDS011;11073;48.586;12.066;2022-10-14T11:41:19;4.97;;;2.88;;
21820;SDS011;11073;48.586;12.066;2022-10-14T11:44:02;5.82;;;2.90;;
21820;SDS011;11073;48.586;12.066;2022-10-14T11:46:42;4.43;;;2.83;;
21820;SDS011;11073;48.586;12.066;2022-10-14T11:49:21;7.97;;;2.88;;
21820;SDS011;11073;48.586;12.066;2022-10-14T11:51:54;7.47;;;2.70;;
21820;SDS011;11073;48.586;12.066;2022-10-14T11:54:30;6.43;;;2.63;;
21820;SDS011;11073;48.586;12.066;2022-10-14T11:57:04;5.15;;;2.28;;
21820;SDS011;11073;48.586;12.066;2022-10-14T11:59:40;3.30;;;2.40;;
21820;SDS011;11073;48.586;12.066;2022-10-14T12:02:41;4.18;;;2.65;;
21820;SDS011;11073;48.586;12.066;2022-10-14T12:05:16;4.88;;;2.40;;
21820;SDS011;11073;48.586;12.066;2022-10-14T12:07:51;4.10;;;2.90;;
21820;SDS011;11073;48.586;12.066;2022-10-14T12:10:29;7.03;;;2.42;;
21820;SDS011;11073;48.586;12.066;2022-10-14T12:13:01;7.20;;;2.53;;
21820;SDS011;11073;48.586;12.066;2022-10-14T12:15:34;5.20;;;3.20;;
21820;SDS011;11073;48.586;12.066;2022-10-14T12:18:11;6.93;;;3.20;;
21820;SDS011;11073;48.586;12.066;2022-10-14T12:20:40;4.05;;;2.40;;
21820;SDS011;11073;48.586;12.066;2022-10-14T12:23:18;4.32;;;2.63;;
21820;SDS011;11073;48.586;12.066;2022-10-14T12:25:54;4.43;;;3.00;;
21820;SDS011;11073;48.586;12.066;2022-10-14T12:28:33;4.28;;;2.20;;
21820;SDS011;11073;48.586;12.066;2022-10-14T12:34:15;5.38;;;3.42;;
21820;SDS011;11073;48.586;12.066;2022-10-14T12:36:55;4.25;;;2.72;;
21820;SDS011;11073;48.586;12.066;2022-10-14T12:39:29;4.25;;;2.45;;
21820;SDS011;11073;48.586;12.066;2022-10-14T12:41:59;3.90;;;2.50;;
21820;SDS011;11073;48.586;12.066;2022-10-14T12:44:35;4.35;;;2.30;;
21820;SDS011;11073;48.586;12.066;2022-10-14T12:47:14;6.82;;;4.80;;
21820;SDS011;11073;48.586;12.066;2022-10-14T12:49:49;4.57;;;2.92;;
21820;SDS011;11073;48.586;12.066;2022-10-14T12:52:22;16.50;;;8.88;;
21820;SDS011;11073;48.586;12.066;2022-10-14T12:54:53;6.38;;;3.22;;
21820;SDS011;11073;48.586;12.066;2022-10-14T12:57:25;6.15;;;3.75;;
21820;SDS011;11073;48.586;12.066;2022-10-14T12:59:56;4.13;;;2.72;;
21820;SDS011;11073;48.586;12.066;2022-10-14T13:02:29;4.22;;;2.70;;
21820;SDS011;11073;48.586;12.066;2022-10-14T13:05:02;5.50;;;2.63;;
21820;SDS011;11073;48.586;12.066;2022-10-14T13:07:38;5.45;;;2.72;;
21820;SDS011;11073;48.586;12.066;2022-10-14T13:19:41;3.92;;;1.80;;
21820;SDS011;11073;48.586;12.066;2022-10-14T13:25:09;6.00;;;3.63;;
21820;SDS011;11073;48.586;12.066;2022-10-14T13:27:46;10.65;;;6.22;;
21820;SDS011;11073;48.586;12.066;2022-10-14T13:30:22;4.32;;;3.05;;
21820;SDS011;11073;48.586;12.066;2022-10-14T13:33:02;4.82;;;2.30;;
21820;SDS011;11073;48.586;12.066;2022-10-14T13:35:45;4.15;;;2.95;;
21820;SDS011;11073;48.586;12.066;2022-10-14T13:38:19;4.20;;;2.20;;
21820;SDS011;11073;48.586;12.066;2022-10-14T13:40:51;4.35;;;2.38;;
21820;SDS011;11073;48.586;12.066;2022-10-14T13:43:23;3.97;;;2.67;;
21820;SDS011;11073;48.586;12.066;2022-10-14T13:46:01;8.10;;;2.80;;
21820;SDS011;11073;48.586;12.066;2022-10-14T13:48:34;4.68;;;2.40;;
21820;SDS011;11073;48.586;12.066;2022-10-14T13:51:14;4.75;;;3.00;;
21820;SDS011;11073;48.586;12.066;2022-10-14T13:54:15;8.18;;;2.90;;
21820;SDS011;11073;48.586;12.066;2022-10-14T13:57:00;6.93;;;3.17;;
21820;SDS011;11073;48.586;12.066;2022-10-14T13:59:51;5.22;;;3.63;;
21820;SDS011;11073;48.586;12.066;2022-10-14T14:02:41;9.23;;;6.38;;
21820;SDS011;11073;48.586;12.066;2022-10-14T14:05:23;8.00;;;4.10;;
21820;SDS011;11073;48.586;12.066;2022-10-14T14:07:53;6.80;;;3.30;;
21820;SDS011;11073;48.586;12.066;2022-10-14T14:10:52;4.53;;;3.42;;
21820;SDS011;11073;48.586;12.066;2022-10-14T14:13:44;4.75;;;3.50;;
21820;SDS011;11073;48.586;12.066;2022-10-14T14:16:26;5.22;;;3.58;;
21820;SDS011;11073;48.586;12.066;2022-10-14T14:18:58;5.25;;;3.28;;
21820;SDS011;11073;48.586;12.066;2022-10-14T14:21:35;5.38;;;3.63;;
21820;SDS011;11073;48.586;12.066;2022-10-14T14:24:09;7.72;;;3.80;;
21820;SDS011;11073;48.586;12.066;2022-10-14T14:26:52;8.57;;;3.33;;
21820;SDS011;11073;48.586;12.066;2022-10-14T14:29:26;6.88;;;4.50;;
21820;SDS011;11073;48.586;12.066;2022-10-14T14:31:57;6.57;;;3.72;;
21820;SDS011;11073;48.586;12.066;2022-10-14T14:34:33;6.45;;;4.45;;
21820;SDS011;11073;48.586;12.066;2022-10-14T14:37:05;5.63;;;2.88;;
21820;SDS011;11073;48.586;12.066;2022-10-14T14:39:56;5.13;;;2.28;;
21820;SDS011;11073;48.586;12.066;2022-10-14T14:42:29;6.00;;;4.15;;
21820;SDS011;11073;48.586;12.066;2022-10-14T14:45:03;8.70;;;6.15;;
21820;SDS011;11073;48.586;12.066;2022-10-14T14:47:35;8.75;;;5.47;;
21820;SDS011;11073;48.586;12.066;2022-10-14T14:50:04;10.20;;;3.50;;
21820;SDS011;11073;48.586;12.066;2022-10-14T14:52:54;8.23;;;3.53;;
21820;SDS011;11073;48.586;12.066;2022-10-14T14:55:41;8.57;;;4.85;;
21820;SDS011;11073;48.586;12.066;2022-10-14T14:58:16;6.07;;;3.80;;
21820;SDS011;11073;48.586;12.066;2022-10-14T15:00:50;7.18;;;3.35;;
21820;SDS011;11073;48.586;12.066;2022-10-14T15:03:21;6.47;;;3.72;;
21820;SDS011;11073;48.586;12.066;2022-10-14T15:05:51;7.40;;;3.63;;
21820;SDS011;11073;48.586;12.066;2022-10-14T15:08:26;5.75;;;3.05;;
21820;SDS011;11073;48.586;12.066;2022-10-14T15:10:57;5.97;;;3.33;;
21820;SDS011;11073;48.586;12.066;2022-10-14T15:13:29;5.75;;;3.60;;
21820;SDS011;11073;48.586;12.066;2022-10-14T15:15:59;5.03;;;3.42;;
21820;SDS011;11073;48.586;12.066;2022-10-14T15:18:28;5.22;;;3.80;;
21820;SDS011;11073;48.586;12.066;2022-10-14T15:21:04;6.53;;;3.70;;
21820;SDS011;11073;48.586;12.066;2022-10-14T15:23:43;6.93;;;3.75;;